Time;durP1;ratioP1;P1;durP2;ratioP2;P2;SDS_P1;SDS_P2;PMS_P1;PMS_P2;Temp;Humidity;BMP_temperature;BMP_pressure;BME280_temperature;BME280_humidity;BME280_pressure;Samples;Min_cycle;Max_cycle;Signal;HPM_P1;HPM_P2
2023/05/15 00:01:03;;;;;;;13.57;3.15;;;;;;;;;;5066332;28;20049;-74
2023/05/15 00:03:33;;;;;;;11.38;2.88;;;;;;;;;;5064917;28;20044;-74
2023/05/15 00:06:04;;;;;;;12.73;3.17;;;;;;;;;;5066462;28;20051;-76
2023/05/15 00:08:35;;;;;;;8.85;3.58;;;;;;;;;;5066927;28;20044;-74
2023/05/15 00:11:05;;;;;;;8.13;3.05;;;;;;;;;;5065187;28;20053;-75
2023/05/15 00:13:37;;;;;;;8.82;2.85;;;;;;;;;;5066386;28;20048;-76
2023/05/15 00:16:08;;;;;;;14.00;2.97;;;;;;;;;;5066260;28;20068;-74
2023/05/15 00:18:39;;;;;;;14.05;3.67;;;;;;;;;;5065140;28;20036;-76
2023/05/15 00:21:11;;;;;;;6.55;2.60;;;;;;;;;;5064606;28;20051;-73
2023/05/15 00:23:42;;;;;;;10.07;2.72;;;;;;;;;;5058574;28;20055;-74
2023/05/15 00:26:14;;;;;;;12.73;2.78;;;;;;;;;;5064671;28;20049;-74
2023/05/15 00:28:45;;;;;;;5.35;2.55;;;;;;;;;;5065703;28;20037;-74
2023/05/15 00:31:16;;;;;;;10.55;3.00;;;;;;;;;;5062535;28;20051;-74
2023/05/15 00:33:46;;;;;;;9.25;3.10;;;;;;;;;;5033483;28;20056;-76
2023/05/15 00:36:17;;;;;;;6.50;2.40;;;;;;;;;;5062916;28;20055;-74
2023/05/15 00:38:48;;;;;;;9.93;2.70;;;;;;;;;;5065660;28;20423;-73
2023/05/15 00:41:21;;;;;;;4.32;2.83;;;;;;;;;;5064120;28;20063;-75
2023/05/15 00:43:54;;;;;;;5.97;2.97;;;;;;;;;;5063840;28;20048;-75
2023/05/15 00:46:27;;;;;;;6.90;2.38;;;;;;;;;;5063939;28;20040;-73
2023/05/15 00:48:59;;;;;;;9.52;2.50;;;;;;;;;;5065659;28;20400;-73
2023/05/15 00:51:31;;;;;;;5.65;2.40;;;;;;;;;;5064974;28;20044;-75
2023/05/15 00:54:04;;;;;;;16.27;3.00;;;;;;;;;;5065726;28;20123;-73
2023/05/15 00:56:35;;;;;;;8.75;3.05;;;;;;;;;;5063303;28;20040;-75
2023/05/15 00:59:07;;;;;;;10.73;3.45;;;;;;;;;;5065742;28;20064;-73
2023/05/15 01:01:40;;;;;;;4.88;2.38;;;;;;;;;;5065035;28;20052;-73
2023/05/15 01:04:10;;;;;;;5.30;2.85;;;;;;;;;;5065336;28;20107;-75
2023/05/15 01:06:41;;;;;;;3.47;2.63;;;;;;;;;;5063676;28;20052;-73
2023/05/15 01:09:14;;;;;;;6.35;2.60;;;;;;;;;;5065266;28;20055;-75
2023/05/15 01:11:49;;;;;;;9.50;2.72;;;;;;;;;;5065412;28;20049;-74
2023/05/15 01:14:19;;;;;;;12.40;2.65;;;;;;;;;;5063185;28;20048;-74
2023/05/15 01:16:50;;;;;;;6.88;2.90;;;;;;;;;;5063124;28;20411;-75
2023/05/15 01:19:21;;;;;;;6.88;3.30;;;;;;;;;;5065472;28;20497;-74
2023/05/15 01:22:16;;;;;;;5.90;2.45;;;;;;;;;;5062826;28;20064;-74
2023/05/15 01:24:46;;;;;;;7.40;3.00;;;;;;;;;;5063146;28;20053;-74
2023/05/15 01:27:21;;;;;;;;;;;;;;;;;;5063663;28;20063;-74
2023/05/15 01:30:10;;;;;;;7.32;2.28;;;;;;;;;;5063069;28;20302;-75
2023/05/15 01:32:55;;;;;;;7.75;2.30;;;;;;;;;;5063635;28;20052;-75
2023/05/15 01:35:41;;;;;;;7.60;2.55;;;;;;;;;;5062863;28;20055;-75
2023/05/15 01:38:29;;;;;;;5.60;2.80;;;;;;;;;;5064388;28;20999;-73
2023/05/15 01:41:24;;;;;;;5.35;2.72;;;;;;;;;;5063072;28;20055;-74
2023/05/15 01:44:34;;;;;;;4.22;2.13;;;;;;;;;;5062309;28;20083;-75
2023/05/15 01:47:20;;;;;;;7.28;2.65;;;;;;;;;;5064749;28;20048;-73
2023/05/15 01:49:52;;;;;;;6.18;2.33;;;;;;;;;;5062812;28;20414;-73
2023/05/15 01:52:46;;;;;;;4.43;2.38;;;;;;;;;;5064226;28;20063;-75
2023/05/15 01:55:19;;;;;;;6.03;2.97;;;;;;;;;;5064701;28;20043;-73
2023/05/15 01:57:51;;;;;;;5.25;2.70;;;;;;;;;;5049088;28;20515;-74
2023/05/15 02:00:22;;;;;;;5.78;2.75;;;;;;;;;;5069061;28;20047;-75
2023/05/15 02:02:54;;;;;;;6.95;2.53;;;;;;;;;;5069104;28;20056;-73
2023/05/15 02:05:26;;;;;;;4.05;2.40;;;;;;;;;;5067391;28;20391;-73
2023/05/15 02:07:57;;;;;;;4.75;2.80;;;;;;;;;;5068857;28;20048;-73
2023/05/15 02:10:27;;;;;;;5.15;2.40;;;;;;;;;;5066628;28;20045;-73
2023/05/15 02:13:00;;;;;;;5.28;2.60;;;;;;;;;;5066464;28;20091;-75
2023/05/15 02:15:31;;;;;;;6.50;2.75;;;;;;;;;;5068576;28;20048;-74
2023/05/15 02:18:02;;;;;;;7.25;2.88;;;;;;;;;;5068790;28;20048;-73
2023/05/15 02:20:31;;;;;;;3.60;2.50;;;;;;;;;;5068695;28;20048;-75
2023/05/15 02:23:02;;;;;;;5.60;2.72;;;;;;;;;;5068937;28;20049;-74
2023/05/15 02:26:12;;;;;;;4.90;2.88;;;;;;;;;;5066804;28;20051;-74
2023/05/15 02:28:54;;;;;;;5.97;2.58;;;;;;;;;;5066886;28;20049;-75
2023/05/15 02:31:50;;;;;;;8.07;2.30;;;;;;;;;;5068281;28;20048;-74
2023/05/15 02:34:41;;;;;;;6.75;2.78;;;;;;;;;;5066079;28;20053;-73
2023/05/15 02:37:18;;;;;;;6.30;2.05;;;;;;;;;;5051818;28;20420;-75
2023/05/15 02:39:53;;;;;;;4.93;2.50;;;;;;;;;;5066763;28;20503;-73
2023/05/15 02:42:24;;;;;;;4.68;2.80;;;;;;;;;;5068567;28;20048;-74
2023/05/15 02:44:56;;;;;;;4.60;2.65;;;;;;;;;;5066804;28;20052;-75
2023/05/15 02:47:28;;;;;;;6.72;2.50;;;;;;;;;;5068000;28;20534;-73
2023/05/15 02:50:01;;;;;;;4.25;2.65;;;;;;;;;;5066350;28;20492;-74
2023/05/15 02:52:34;;;;;;;3.92;2.35;;;;;;;;;;5067756;28;20507;-75
2023/05/15 02:55:07;;;;;;;4.43;2.45;;;;;;;;;;5066399;28;20500;-75
2023/05/15 02:57:37;;;;;;;7.95;3.22;;;;;;;;;;5067215;28;20056;-73
2023/05/15 03:00:10;;;;;;;7.78;2.97;;;;;;;;;;5067854;28;20048;-73
2023/05/15 03:02:41;;;;;;;5.75;2.88;;;;;;;;;;5067955;28;20049;-74
2023/05/15 03:05:12;;;;;;;8.98;2.90;;;;;;;;;;5067356;28;20040;-74
2023/05/15 03:07:43;;;;;;;6.95;3.22;;;;;;;;;;5067433;28;20055;-73
2023/05/15 03:10:14;;;;;;;5.20;2.67;;;;;;;;;;5067943;28;20411;-74
2023/05/15 03:12:45;;;;;;;4.10;2.50;;;;;;;;;;5065489;28;20060;-74
2023/05/15 03:15:17;;;;;;;5.07;2.88;;;;;;;;;;5065426;28;20049;-73
2023/05/15 03:17:47;;;;;;;7.60;2.50;;;;;;;;;;5066075;28;20064;-74
2023/05/15 03:20:17;;;;;;;6.78;2.72;;;;;;;;;;5066177;28;20044;-74
2023/05/15 03:22:48;;;;;;;4.22;2.80;;;;;;;;;;5065623;28;20056;-74
2023/05/15 03:25:20;;;;;;;6.55;2.55;;;;;;;;;;5065313;28;20052;-74
2023/05/15 03:27:50;;;;;;;4.97;2.80;;;;;;;;;;5065492;28;20056;-73
2023/05/15 03:30:21;;;;;;;4.30;3.00;;;;;;;;;;5067118;28;20060;-73
2023/05/15 03:32:53;;;;;;;;;;;;;;;;;;5067169;28;20688;-75
2023/05/15 03:35:25;;;;;;;4.38;2.42;;;;;;;;;;5067384;28;19933;-74
2023/05/15 03:37:55;;;;;;;4.75;2.55;;;;;;;;;;5067181;28;20396;-74
2023/05/15 03:40:25;;;;;;;5.30;2.72;;;;;;;;;;5067494;28;20040;-75
2023/05/15 03:42:58;;;;;;;3.83;2.67;;;;;;;;;;5064615;28;20052;-73
2023/05/15 03:45:29;;;;;;;3.45;2.13;;;;;;;;;;5066728;28;20044;-74
2023/05/15 03:47:59;;;;;;;9.73;2.90;;;;;;;;;;5067457;28;20044;-75
2023/05/15 03:50:30;;;;;;;7.28;2.67;;;;;;;;;;5064998;28;20053;-73
2023/05/15 03:53:00;;;;;;;;;;;;;;;;;;5065877;28;20063;-74
2023/05/15 03:55:31;;;;;;;5.50;2.70;;;;;;;;;;5066891;28;19921;-73
2023/05/15 03:58:02;;;;;;;3.35;2.72;;;;;;;;;;5065685;28;20060;-72
2023/05/15 04:00:34;;;;;;;5.97;2.78;;;;;;;;;;5065078;28;20423;-73
2023/05/15 04:03:06;;;;;;;5.88;2.95;;;;;;;;;;5066505;28;20060;-74
2023/05/15 04:05:36;;;;;;;7.15;2.50;;;;;;;;;;5065999;28;20415;-74
2023/05/15 04:08:08;;;;;;;5.25;2.08;;;;;;;;;;5065888;28;20769;-73
2023/05/15 04:10:39;;;;;;;5.68;2.80;;;;;;;;;;5066437;28;20044;-73
2023/05/15 04:13:09;;;;;;;4.32;2.33;;;;;;;;;;5066339;28;20053;-74
2023/05/15 04:15:40;;;;;;;4.35;2.00;;;;;;;;;;5066333;28;20051;-73
2023/05/15 04:18:10;;;;;;;4.88;2.92;;;;;;;;;;5066311;28;20537;-75
2023/05/15 04:20:40;;;;;;;3.40;1.92;;;;;;;;;;5065429;28;20045;-73
2023/05/15 04:23:10;;;;;;;4.15;2.35;;;;;;;;;;5066589;28;20048;-74
2023/05/15 04:25:44;;;;;;;3.15;1.90;;;;;;;;;;5066002;28;20491;-75
2023/05/15 04:28:16;;;;;;;;;;;;;;;;;;5066230;28;20051;-73
2023/05/15 04:30:46;;;;;;;8.82;2.78;;;;;;;;;;5066539;28;20379;-74
2023/05/15 04:33:17;;;;;;;5.85;2.25;;;;;;;;;;5065996;28;20512;-75
2023/05/15 04:35:48;;;;;;;3.83;2.17;;;;;;;;;;5065731;28;20048;-74
2023/05/15 04:38:17;;;;;;;;;;;;;;;;;;5066393;28;20067;-74
2023/05/15 04:40:47;;;;;;;5.80;2.17;;;;;;;;;;5065903;28;19924;-73
2023/05/15 04:43:23;;;;;;;7.07;2.72;;;;;;;;;;5065838;28;20520;-73
2023/05/15 04:45:54;;;;;;;3.50;2.08;;;;;;;;;;5065944;28;20056;-73
2023/05/15 04:48:24;;;;;;;5.10;2.40;;;;;;;;;;5064915;28;20053;-74
2023/05/15 04:50:54;;;;;;;;;;;;;;;;;;5066061;28;20040;-74
2023/05/15 04:53:24;;;;;;;4.47;2.60;;;;;;;;;;5065466;28;19924;-74
2023/05/15 04:55:54;;;;;;;4.03;2.53;;;;;;;;;;5065677;28;20048;-74
2023/05/15 04:58:26;;;;;;;4.40;2.45;;;;;;;;;;5065470;28;20059;-75
2023/05/15 05:00:56;;;;;;;3.83;2.20;;;;;;;;;;5065540;28;20044;-73
2023/05/15 05:03:28;;;;;;;4.72;2.70;;;;;;;;;;5065464;28;20044;-74
2023/05/15 05:05:58;;;;;;;3.92;2.63;;;;;;;;;;5065604;28;20044;-74
2023/05/15 05:08:29;;;;;;;4.43;2.67;;;;;;;;;;5065085;28;20491;-75
2023/05/15 05:10:59;;;;;;;4.25;2.88;;;;;;;;;;5063811;28;20075;-74
2023/05/15 05:13:29;;;;;;;5.32;2.58;;;;;;;;;;5065033;28;20048;-73
2023/05/15 05:15:59;;;;;;;5.15;2.63;;;;;;;;;;5065091;28;20055;-74
2023/05/15 05:18:35;;;;;;;5.65;2.10;;;;;;;;;;5065433;28;20422;-74
2023/05/15 05:21:05;;;;;;;4.47;3.10;;;;;;;;;;5064858;28;20515;-73
2023/05/15 05:23:35;;;;;;;4.15;2.30;;;;;;;;;;5065387;28;20055;-73
2023/05/15 05:26:06;;;;;;;4.30;2.22;;;;;;;;;;5063675;28;20067;-73
2023/05/15 05:28:36;;;;;;;;;;;;;;;;;;5065223;28;20055;-73
2023/05/15 05:31:07;;;;;;;4.47;2.42;;;;;;;;;;5064561;28;19927;-74
2023/05/15 05:33:38;;;;;;;3.47;2.40;;;;;;;;;;5062117;28;20506;-74
2023/05/15 05:36:08;;;;;;;6.00;2.08;;;;;;;;;;5065204;28;20051;-73
2023/05/15 05:38:38;;;;;;;8.73;3.15;;;;;;;;;;5065207;28;20045;-73
2023/05/15 05:41:07;;;;;;;;;;;;;;;;;;5065680;28;20039;-73
2023/05/15 05:43:38;;;;;;;5.05;1.90;;;;;;;;;;5062557;28;19928;-74
2023/05/15 05:46:08;;;;;;;3.25;2.13;;;;;;;;;;5064798;28;20048;-74
2023/05/15 05:48:38;;;;;;;7.82;2.53;;;;;;;;;;5064826;28;20415;-73
2023/05/15 05:51:08;;;;;;;;;;;;;;;;;;5065151;28;20060;-74
2023/05/15 05:53:37;;;;;;;5.53;2.30;;;;;;;;;;5064779;28;19924;-73
2023/05/15 05:56:08;;;;;;;8.85;2.75;;;;;;;;;;5065196;28;20045;-73
2023/05/15 05:58:39;;;;;;;5.15;2.80;;;;;;;;;;5064876;28;20044;-74
2023/05/15 06:01:11;;;;;;;3.28;1.80;;;;;;;;;;5064554;28;20056;-73
2023/05/15 06:03:42;;;;;;;4.95;3.13;;;;;;;;;;5064540;28;20662;-74
2023/05/15 06:06:13;;;;;;;8.38;2.28;;;;;;;;;;5063870;28;20050;-73
2023/05/15 06:08:43;;;;;;;3.38;1.88;;;;;;;;;;5064591;28;20045;-73
2023/05/15 06:11:13;;;;;;;6.63;2.53;;;;;;;;;;5064401;28;20075;-73
2023/05/15 06:13:43;;;;;;;9.85;2.80;;;;;;;;;;5065198;28;20060;-73
2023/05/15 06:16:13;;;;;;;6.20;2.63;;;;;;;;;;5064277;28;20055;-73
2023/05/15 06:18:43;;;;;;;;;;;;;;;;;;5065078;28;20621;-73
2023/05/15 06:21:14;;;;;;;7.57;2.85;;;;;;;;;;5065019;28;20378;-73
2023/05/15 06:23:44;;;;;;;3.55;2.20;;;;;;;;;;5064572;28;20056;-73
2023/05/15 06:26:15;;;;;;;4.22;2.50;;;;;;;;;;5064464;28;20501;-73
2023/05/15 06:28:47;;;;;;;3.83;2.17;;;;;;;;;;5064535;28;20048;-73
2023/05/15 06:31:18;;;;;;;4.70;2.30;;;;;;;;;;5063252;28;20057;-73
2023/05/15 06:33:48;;;;;;;3.65;2.10;;;;;;;;;;5063991;28;20052;-74
2023/05/15 06:36:19;;;;;;;4.85;2.55;;;;;;;;;;5064639;28;20518;-73
2023/05/15 06:38:50;;;;;;;3.10;2.10;;;;;;;;;;5064188;28;20399;-73
2023/05/15 06:41:21;;;;;;;4.82;2.33;;;;;;;;;;5064166;28;20504;-73
2023/05/15 06:43:51;;;;;;;7.80;2.72;;;;;;;;;;5065853;28;20694;-73
2023/05/15 06:46:21;;;;;;;5.35;2.58;;;;;;;;;;5068211;28;20070;-73
2023/05/15 06:48:51;;;;;;;;;;;;;;;;;;5068659;28;20048;-73
2023/05/15 06:51:21;;;;;;;4.50;1.98;;;;;;;;;;5067643;28;19929;-73
2023/05/15 06:53:51;;;;;;;;;;;;;;;;;;5068052;28;20057;-73
2023/05/15 06:56:21;;;;;;;2.80;1.73;;;;;;;;;;5067807;28;19933;-73
2023/05/15 06:58:51;;;;;;;2.95;2.10;;;;;;;;;;5067912;28;20517;-74
2023/05/15 07:01:20;;;;;;;;;;;;;;;;;;5068355;28;20051;-73
2023/05/15 07:03:50;;;;;;;6.00;1.92;;;;;;;;;;5067643;28;19932;-74
2023/05/15 07:06:21;;;;;;;4.63;2.25;;;;;;;;;;5066014;28;20056;-74
2023/05/15 07:08:52;;;;;;;3.92;2.20;;;;;;;;;;5067339;28;20511;-74
2023/05/15 07:11:29;;;;;;;5.07;2.60;;;;;;;;;;5067313;28;20049;-73
2023/05/15 07:13:59;;;;;;;6.53;2.60;;;;;;;;;;5067393;28;20499;-73
2023/05/15 07:16:30;;;;;;;4.25;2.70;;;;;;;;;;5067632;28;20051;-73
2023/05/15 07:19:00;;;;;;;3.22;2.15;;;;;;;;;;5067557;28;20056;-74
2023/05/15 07:21:31;;;;;;;5.38;2.70;;;;;;;;;;5067076;28;20040;-73
2023/05/15 07:24:01;;;;;;;5.20;2.85;;;;;;;;;;5067043;28;20044;-74
2023/05/15 07:26:32;;;;;;;5.40;2.80;;;;;;;;;;5066983;28;20061;-74
2023/05/15 07:29:16;;;;;;;3.35;2.38;;;;;;;;;;5067389;28;20052;-73
2023/05/15 07:31:47;;;;;;;4.40;2.45;;;;;;;;;;5068494;28;20044;-73
2023/05/15 07:34:16;;;;;;;;;;;;;;;;;;5066975;28;20052;-73
2023/05/15 07:36:46;;;;;;;8.02;2.25;;;;;;;;;;5067614;28;19920;-73
2023/05/15 07:39:16;;;;;;;;;;;;;;;;;;5067725;28;20499;-73
2023/05/15 07:41:47;;;;;;;3.15;1.80;;;;;;;;;;5067108;28;19924;-73
2023/05/15 07:44:17;;;;;;;2.60;1.75;;;;;;;;;;5067746;28;20403;-73
2023/05/15 07:46:47;;;;;;;3.55;1.80;;;;;;;;;;5066643;28;20044;-73
2023/05/15 07:49:18;;;;;;;4.28;2.50;;;;;;;;;;5066808;28;20526;-73
2023/05/15 07:51:49;;;;;;;3.35;1.80;;;;;;;;;;5066919;28;20059;-74
2023/05/15 07:54:20;;;;;;;3.15;2.25;;;;;;;;;;5066859;28;20055;-73
2023/05/15 07:56:50;;;;;;;3.85;2.53;;;;;;;;;;5066307;28;20044;-73
2023/05/15 07:59:20;;;;;;;4.53;2.70;;;;;;;;;;5067639;28;20059;-74
2023/05/15 08:01:51;;;;;;;4.45;2.20;;;;;;;;;;5067781;28;20048;-73
2023/05/15 08:04:21;;;;;;;6.40;2.00;;;;;;;;;;5067020;28;20403;-74
2023/05/15 08:06:51;;;;;;;8.15;2.85;;;;;;;;;;5065475;28;20047;-73
2023/05/15 08:09:21;;;;;;;4.57;2.67;;;;;;;;;;5066798;28;20480;-73
2023/05/15 08:11:56;;;;;;;3.30;2.47;;;;;;;;;;5065793;28;20048;-73
2023/05/15 08:14:26;;;;;;;3.53;2.10;;;;;;;;;;5065828;28;20052;-73
2023/05/15 08:16:57;;;;;;;3.45;2.63;;;;;;;;;;5065739;28;20055;-73
2023/05/15 08:19:27;;;;;;;5.47;2.20;;;;;;;;;;5065985;28;20055;-74
2023/05/15 08:21:57;;;;;;;7.40;2.58;;;;;;;;;;5066619;28;20047;-74
2023/05/15 08:24:28;;;;;;;7.97;2.90;;;;;;;;;;5066301;28;20732;-74
2023/05/15 08:26:59;;;;;;;4.78;2.22;;;;;;;;;;5066044;28;20064;-73
2023/05/15 08:29:29;;;;;;;3.30;2.25;;;;;;;;;;5065709;28;20126;-74
2023/05/15 08:32:00;;;;;;;2.42;1.70;;;;;;;;;;5066116;28;20051;-74
2023/05/15 08:34:31;;;;;;;4.07;2.17;;;;;;;;;;5065688;28;20056;-74
2023/05/15 08:37:01;;;;;;;4.18;2.20;;;;;;;;;;5066031;28;20040;-74
2023/05/15 08:39:32;;;;;;;5.68;2.47;;;;;;;;;;5065468;28;20059;-74
2023/05/15 08:42:13;;;;;;;3.08;2.00;;;;;;;;;;5064425;28;20059;-74
2023/05/15 08:44:45;;;;;;;4.80;2.30;;;;;;;;;;5065552;28;20515;-74
2023/05/15 08:47:18;;;;;;;7.65;2.40;;;;;;;;;;5065016;28;20055;-73
2023/05/15 08:49:52;;;;;;;4.75;2.42;;;;;;;;;;5065011;28;20431;-74
2023/05/15 08:52:24;;;;;;;4.65;2.20;;;;;;;;;;5065704;28;20049;-74
2023/05/15 08:54:55;;;;;;;4.03;2.35;;;;;;;;;;5065113;28;20049;-73
2023/05/15 08:57:26;;;;;;;5.53;2.35;;;;;;;;;;5066381;28;20487;-73
2023/05/15 08:59:58;;;;;;;9.00;2.50;;;;;;;;;;5065474;28;20052;-73
2023/05/15 09:02:28;;;;;;;4.50;1.90;;;;;;;;;;5065429;28;20048;-73
2023/05/15 09:05:01;;;;;;;5.05;2.53;;;;;;;;;;5063095;28;20419;-73
2023/05/15 09:07:31;;;;;;;3.72;1.90;;;;;;;;;;5064828;28;20099;-73
2023/05/15 09:10:03;;;;;;;6.07;2.55;;;;;;;;;;5064881;28;20051;-73
2023/05/15 09:12:35;;;;;;;7.07;2.33;;;;;;;;;;5065338;28;20044;-73
2023/05/15 09:15:24;;;;;;;5.30;2.55;;;;;;;;;;5065076;28;20494;-73
2023/05/15 09:17:56;;;;;;;9.65;2.40;;;;;;;;;;5064078;28;20037;-82
2023/05/15 09:20:36;;;;;;;4.25;2.40;;;;;;;;;;5064752;28;20080;-73
2023/05/15 09:23:25;;;;;;;3.50;2.28;;;;;;;;;;5063637;28;20525;-73
2023/05/15 09:25:58;;;;;;;2.45;1.73;;;;;;;;;;5064634;28;20048;-73
2023/05/15 09:28:29;;;;;;;3.42;1.77;;;;;;;;;;5064710;28;20044;-73
2023/05/15 09:31:07;;;;;;;7.55;2.05;;;;;;;;;;5064933;28;20380;-74
2023/05/15 09:33:44;;;;;;;4.60;2.10;;;;;;;;;;5064904;28;20495;-73
2023/05/15 09:36:22;;;;;;;5.60;2.17;;;;;;;;;;5064948;28;20052;-73
2023/05/15 09:38:59;;;;;;;9.68;2.90;;;;;;;;;;5065492;28;20056;-73
2023/05/15 09:41:29;;;;;;;7.03;3.03;;;;;;;;;;5065125;28;20044;-73
2023/05/15 09:43:59;;;;;;;;;;;;;;;;;;5065333;28;20048;-73
2023/05/15 09:46:31;;;;;;;6.75;2.60;;;;;;;;;;5065068;28;20298;-74
2023/05/15 09:49:09;;;;;;;3.58;2.28;;;;;;;;;;5064526;28;20040;-75
2023/05/15 09:51:49;;;;;;;3.47;2.33;;;;;;;;;;5064350;28;20407;-73
2023/05/15 09:54:23;;;;;;;7.03;2.65;;;;;;;;;;5063239;28;20053;-73
2023/05/15 09:56:53;;;;;;;14.65;4.30;;;;;;;;;;5064659;28;20061;-75
2023/05/15 09:59:23;;;;;;;6.18;2.85;;;;;;;;;;5063570;28;20057;-75
2023/05/15 10:01:53;;;;;;;5.20;3.53;;;;;;;;;;5064530;28;20053;-73
2023/05/15 10:04:23;;;;;;;;;;;;;;;;;;5062355;28;20423;-73
2023/05/15 10:06:53;;;;;;;6.70;2.47;;;;;;;;;;5062533;28;19927;-74
2023/05/15 10:09:31;;;;;;;9.05;3.42;;;;;;;;;;5062776;28;20234;-73
2023/05/15 10:12:04;;;;;;;9.20;3.65;;;;;;;;;;5062559;28;20041;-74
2023/05/15 10:14:34;;;;;;;6.55;3.22;;;;;;;;;;5062656;28;20064;-78
2023/05/15 10:17:06;;;;;;;8.23;2.88;;;;;;;;;;5062446;28;20076;-73
2023/05/15 10:19:36;;;;;;;7.25;2.15;;;;;;;;;;5066786;28;20040;-74
2023/05/15 10:22:30;;;;;;;7.93;3.10;;;;;;;;;;5066600;28;20052;-73
2023/05/15 10:25:12;;;;;;;8.15;3.47;;;;;;;;;;5068205;28;20044;-73
2023/05/15 10:27:45;;;;;;;5.10;3.00;;;;;;;;;;5066336;28;20429;-74
2023/05/15 10:30:16;;;;;;;7.45;2.38;;;;;;;;;;5068205;28;20037;-73
2023/05/15 10:32:47;;;;;;;11.45;3.38;;;;;;;;;;5051018;28;20131;-74
2023/05/15 10:35:18;;;;;;;5.97;2.53;;;;;;;;;;5068382;28;20049;-74
2023/05/15 10:37:49;;;;;;;4.30;2.67;;;;;;;;;;5068276;28;20401;-74
2023/05/15 10:40:19;;;;;;;5.80;3.72;;;;;;;;;;5067753;28;20055;-74
2023/05/15 10:42:51;;;;;;;10.23;3.80;;;;;;;;;;5067918;28;20057;-73
2023/05/15 10:45:21;;;;;;;17.58;6.93;;;;;;;;;;5067730;28;20051;-77
2023/05/15 10:47:52;;;;;;;13.38;5.70;;;;;;;;;;5067680;28;20414;-74
2023/05/15 10:50:22;;;;;;;12.25;4.28;;;;;;;;;;5067522;28;20053;-74
2023/05/15 10:52:55;;;;;;;13.80;4.72;;;;;;;;;;5067430;28;20044;-74
2023/05/15 10:55:25;;;;;;;14.13;4.80;;;;;;;;;;5066004;28;20040;-73
2023/05/15 10:57:56;;;;;;;12.55;4.10;;;;;;;;;;5067646;28;20566;-74
2023/05/15 11:00:32;;;;;;;40.70;12.88;;;;;;;;;;5067765;28;20052;-74
2023/05/15 11:03:05;;;;;;;11.32;4.22;;;;;;;;;;5067648;28;20067;-74
2023/05/15 11:06:11;;;;;;;10.55;4.30;;;;;;;;;;5067872;28;20060;-76
2023/05/15 11:08:44;;;;;;;9.63;5.03;;;;;;;;;;5067818;28;20051;-73
2023/05/15 11:11:54;;;;;;;15.43;6.40;;;;;;;;;;5067691;28;20040;-73
2023/05/15 11:14:26;;;;;;;16.05;7.15;;;;;;;;;;5004875;28;20480;-74
2023/05/15 11:17:02;;;;;;;14.15;6.07;;;;;;;;;;5004499;28;20057;-74
2023/05/15 11:19:50;;;;;;;8.13;3.90;;;;;;;;;;5042804;28;20060;-78
2023/05/15 11:22:31;;;;;;;15.73;4.80;;;;;;;;;;5067242;28;20044;-74
2023/05/15 11:25:08;;;;;;;7.18;3.60;;;;;;;;;;5066714;28;20499;-74
2023/05/15 11:27:42;;;;;;;19.48;5.45;;;;;;;;;;5066961;28;20057;-78
2023/05/15 11:30:19;;;;;;;;;;;;;;;;;;5066447;28;20045;-75
2023/05/15 11:32:55;;;;;;;8.10;4.07;;;;;;;;;;5067135;28;19924;-78
2023/05/15 11:35:33;;;;;;;12.30;4.68;;;;;;;;;;5067054;28;20048;-75
2023/05/15 11:38:21;;;;;;;10.65;3.80;;;;;;;;;;5067749;28;20589;-75
2023/05/15 11:41:02;;;;;;;;;;;;;;;;;;5066994;28;20518;-75
2023/05/15 11:43:35;;;;;;;10.68;4.68;;;;;;;;;;5066773;28;19932;-74
2023/05/15 11:46:11;;;;;;;12.77;7.10;;;;;;;;;;5067178;28;20525;-74
2023/05/15 11:48:41;;;;;;;;;;;;;;;;;;5067670;28;20045;-76
2023/05/15 11:51:21;;;;;;;8.13;4.72;;;;;;;;;;5066885;28;19935;-75
2023/05/15 11:53:53;;;;;;;9.88;4.90;;;;;;;;;;5066652;28;20052;-75
2023/05/15 11:56:29;;;;;;;12.88;5.00;;;;;;;;;;5064817;28;20060;-77
2023/05/15 11:59:03;;;;;;;15.02;5.35;;;;;;;;;;5066060;28;20055;-76
2023/05/15 12:01:47;;;;;;;8.13;4.93;;;;;;;;;;5066201;28;20048;-76
2023/05/15 12:04:18;;;;;;;9.40;4.75;;;;;;;;;;5066433;28;20044;-76
2023/05/15 12:06:50;;;;;;;12.90;5.75;;;;;;;;;;5066064;28;20045;-77
2023/05/15 12:09:26;;;;;;;7.28;3.85;;;;;;;;;;5063938;28;20048;-76
2023/05/15 12:11:56;;;;;;;11.02;3.90;;;;;;;;;;5066333;28;20047;-77
2023/05/15 12:14:28;;;;;;;8.43;4.30;;;;;;;;;;5066093;28;20045;-76
2023/05/15 12:17:03;;;;;;;12.23;3.92;;;;;;;;;;5064411;28;20523;-77
2023/05/15 12:19:34;;;;;;;5.85;3.47;;;;;;;;;;5066529;28;20522;-75
2023/05/15 12:22:07;;;;;;;7.22;3.90;;;;;;;;;;5066013;28;20707;-76
2023/05/15 12:24:38;;;;;;;9.25;3.90;;;;;;;;;;5065875;28;20044;-75
2023/05/15 12:27:09;;;;;;;11.18;4.32;;;;;;;;;;5065647;28;20503;-76
2023/05/15 12:29:40;;;;;;;9.07;3.70;;;;;;;;;;5066194;28;20083;-75
2023/05/15 12:32:13;;;;;;;7.90;3.80;;;;;;;;;;5065877;28;20037;-76
2023/05/15 12:34:43;;;;;;;6.75;3.42;;;;;;;;;;5065437;28;20040;-75
2023/05/15 12:37:14;;;;;;;7.55;3.80;;;;;;;;;;5065522;28;20060;-77
2023/05/15 12:39:55;;;;;;;8.48;3.78;;;;;;;;;;5065105;28;20051;-76
2023/05/15 12:42:26;;;;;;;6.00;3.72;;;;;;;;;;5065316;28;20063;-80
2023/05/15 12:44:57;;;;;;;6.03;3.92;;;;;;;;;;5064642;28;20098;-76
2023/05/15 12:47:28;;;;;;;9.60;4.47;;;;;;;;;;5065625;28;20040;-75
2023/05/15 12:49:58;;;;;;;14.32;6.43;;;;;;;;;;5065026;28;20052;-78
2023/05/15 12:52:30;;;;;;;14.27;8.07;;;;;;;;;;5063457;28;20056;-76
2023/05/15 12:55:02;;;;;;;13.38;5.30;;;;;;;;;;5064708;28;20051;-74
2023/05/15 12:57:34;;;;;;;11.23;5.30;;;;;;;;;;5065494;28;20079;-75
2023/05/15 13:00:06;;;;;;;7.80;4.82;;;;;;;;;;5065648;28;20052;-77
2023/05/15 13:02:38;;;;;;;9.63;6.65;;;;;;;;;;5065003;28;20517;-77
2023/05/15 13:05:10;;;;;;;9.80;4.82;;;;;;;;;;5064814;28;20056;-78
2023/05/15 13:07:44;;;;;;;7.35;5.10;;;;;;;;;;5064892;28;20044;-74
2023/05/15 13:10:15;;;;;;;15.07;6.22;;;;;;;;;;5065311;28;20049;-75
2023/05/15 13:12:45;;;;;;;15.52;6.30;;;;;;;;;;5064628;28;20063;-74
2023/05/15 13:15:44;;;;;;;7.63;4.80;;;;;;;;;;5064774;28;20044;-77
2023/05/15 13:18:18;;;;;;;;;;;;;;;;;;5064769;28;20048;-75
2023/05/15 13:20:53;;;;;;;9.02;4.70;;;;;;;;;;5064702;28;20283;-74
2023/05/15 13:23:23;;;;;;;6.00;4.43;;;;;;;;;;5064875;28;20049;-75
2023/05/15 13:25:54;;;;;;;9.90;4.32;;;;;;;;;;5061966;28;20057;-73
2023/05/15 13:28:26;;;;;;;8.07;4.68;;;;;;;;;;5064670;28;20052;-75
2023/05/15 13:30:56;;;;;;;8.18;4.53;;;;;;;;;;5064762;28;20048;-74
2023/05/15 13:33:28;;;;;;;7.00;4.68;;;;;;;;;;5064618;28;20136;-73
2023/05/15 13:35:59;;;;;;;9.23;4.95;;;;;;;;;;5064751;28;20044;-75
2023/05/15 13:38:30;;;;;;;11.48;5.45;;;;;;;;;;5064633;28;20052;-76
2023/05/15 13:40:59;;;;;;;12.55;6.25;;;;;;;;;;5064627;28;20056;-74
2023/05/15 13:43:30;;;;;;;6.63;4.80;;;;;;;;;;5063794;28;20056;-75
2023/05/15 13:46:00;;;;;;;9.20;5.70;;;;;;;;;;5063845;28;20048;-76
2023/05/15 13:48:30;;;;;;;9.05;4.80;;;;;;;;;;5064219;28;20044;-75
2023/05/15 13:51:01;;;;;;;14.02;4.90;;;;;;;;;;5064482;28;20044;-75
2023/05/15 13:53:32;;;;;;;5.47;4.50;;;;;;;;;;5062909;28;20040;-74
2023/05/15 13:56:02;;;;;;;10.65;5.32;;;;;;;;;;5064632;28;20044;-76
2023/05/15 13:58:32;;;;;;;10.52;4.28;;;;;;;;;;5064227;28;20048;-78
2023/05/15 14:01:06;;;;;;;7.00;4.30;;;;;;;;;;5063885;28;20418;-78
2023/05/15 14:03:37;;;;;;;9.82;4.50;;;;;;;;;;5063740;28;20044;-74
2023/05/15 14:06:08;;;;;;;5.57;3.90;;;;;;;;;;5064212;28;20040;-74
2023/05/15 14:08:38;;;;;;;7.13;3.50;;;;;;;;;;5064751;28;20052;-75
2023/05/15 14:11:08;;;;;;;6.47;3.38;;;;;;;;;;5063863;28;20047;-75
2023/05/15 14:13:38;;;;;;;6.90;3.60;;;;;;;;;;5064258;28;20040;-76
2023/05/15 14:16:09;;;;;;;6.88;3.78;;;;;;;;;;5064531;28;20045;-77
2023/05/15 14:18:40;;;;;;;6.75;3.90;;;;;;;;;;5063415;28;20510;-74
2023/05/15 14:21:11;;;;;;;8.45;4.18;;;;;;;;;;5063117;28;20419;-76
2023/05/15 14:23:40;;;;;;;9.20;5.00;;;;;;;;;;5064870;28;20056;-75
2023/05/15 14:26:11;;;;;;;16.27;4.35;;;;;;;;;;5063903;28;20043;-75
2023/05/15 14:28:44;;;;;;;7.55;4.47;;;;;;;;;;5064757;28;20051;-76
2023/05/15 14:31:17;;;;;;;14.27;4.28;;;;;;;;;;5063870;28;20056;-76
2023/05/15 14:33:47;;;;;;;8.27;4.25;;;;;;;;;;5062903;28;20625;-77
2023/05/15 14:36:20;;;;;;;9.27;4.22;;;;;;;;;;5063343;28;20064;-77
2023/05/15 14:38:50;;;;;;;5.47;3.30;;;;;;;;;;5064017;28;20040;-76
2023/05/15 14:41:21;;;;;;;8.65;3.40;;;;;;;;;;5063590;28;20570;-76
2023/05/15 14:43:52;;;;;;;8.50;3.55;;;;;;;;;;5064028;28;20128;-75
2023/05/15 14:46:22;;;;;;;7.47;3.17;;;;;;;;;;5064113;28;20040;-75
2023/05/15 14:48:52;;;;;;;10.25;4.03;;;;;;;;;;5063447;28;20052;-76
2023/05/15 14:51:23;;;;;;;8.57;3.38;;;;;;;;;;5063632;28;20053;-75
2023/05/15 14:53:54;;;;;;;4.80;3.13;;;;;;;;;;5063498;28;20051;-75
2023/05/15 14:56:25;;;;;;;6.72;2.90;;;;;;;;;;5063943;28;20056;-75
2023/05/15 14:58:55;;;;;;;7.18;3.50;;;;;;;;;;5063769;28;20040;-77
2023/05/15 15:01:26;;;;;;;5.63;2.50;;;;;;;;;;5063430;28;20054;-77
2023/05/15 15:04:00;;;;;;;4.80;2.20;;;;;;;;;;5063664;28;20387;-75
2023/05/15 15:06:31;;;;;;;5.50;2.15;;;;;;;;;;5067084;28;20048;-76
2023/05/15 15:09:01;;;;;;;3.65;2.30;;;;;;;;;;5067391;28;20505;-80
2023/05/15 15:20:35;;;;;;;5.03;1.70;;;;;;;;;;5069132;28;20040;-76
2023/05/15 15:23:08;;;;;;;3.47;1.80;;;;;;;;;;5064913;28;20056;-75
2023/05/15 15:25:39;;;;;;;2.92;1.40;;;;;;;;;;5067202;28;20049;-77
2023/05/15 15:28:09;;;;;;;3.72;1.42;;;;;;;;;;5067311;28;20064;-77
2023/05/15 15:30:39;;;;;;;6.53;1.58;;;;;;;;;;5065722;28;20056;-75